createdAt,value
2019-02-10T00:05:38.140Z,42.66
2019-02-10T00:11:33.137Z,40.57
2019-02-10T00:17:28.119Z,39.32
2019-02-10T00:23:23.143Z,73.15
2019-02-10T00:29:18.175Z,89.72
2019-02-10T00:35:13.202Z,103.13
2019-02-10T00:41:08.129Z,98.26
2019-02-10T00:47:03.189Z,75.81
2019-02-10T00:52:58.151Z,68.96
2019-02-10T00:58:53.153Z,61.58
2019-02-10T01:04:48.145Z,58.52
2019-02-10T01:10:43.158Z,56.63
2019-02-10T01:16:38.144Z,51.51
2019-02-10T01:22:33.200Z,49.47
2019-02-10T01:28:28.190Z,49.05
2019-02-10T01:34:23.186Z,45.71
2019-02-10T01:40:18.197Z,44.95
2019-02-10T01:46:13.191Z,42.96
2019-02-10T01:52:08.193Z,45.43
2019-02-10T01:58:03.219Z,43.01
2019-02-10T02:03:58.207Z,38.02
2019-02-10T02:09:53.232Z,39.54
2019-02-10T02:15:48.196Z,37.19
2019-02-10T02:21:43.189Z,36.89
2019-02-10T02:27:38.208Z,34.55
2019-02-10T02:33:33.234Z,34.73
2019-02-10T02:39:28.226Z,38.41
2019-02-10T02:45:23.272Z,39.29
2019-02-10T02:51:18.230Z,40.93
2019-02-10T02:57:13.213Z,44.1
2019-02-10T03:03:08.245Z,38.39
2019-02-10T03:09:03.294Z,35.25
2019-02-10T03:14:58.249Z,41.22
2019-02-10T03:20:53.253Z,44.83
2019-02-10T03:26:48.281Z,47.67
2019-02-10T03:32:43.296Z,47.57
2019-02-10T03:38:38.259Z,52.3
2019-02-10T03:44:33.282Z,51.19
2019-02-10T03:50:28.232Z,53.79
2019-02-10T03:56:23.247Z,50.43
2019-02-10T04:02:18.266Z,48.24
2019-02-10T04:08:13.308Z,44.3
2019-02-10T04:14:08.275Z,47.68
2019-02-10T04:20:03.303Z,47.03
2019-02-10T04:25:58.266Z,41.88
2019-02-10T04:31:53.275Z,39.01
2019-02-10T04:37:48.273Z,34.29
2019-02-10T04:43:43.293Z,32.82
2019-02-10T04:49:38.295Z,21.98
2019-02-10T04:55:33.310Z,17.03
2019-02-10T05:01:28.310Z,17.77
2019-02-10T05:07:23.335Z,15.58
2019-02-10T05:13:18.344Z,14.95
2019-02-10T05:19:13.285Z,13.42
2019-02-10T05:25:08.312Z,24.97
2019-02-10T05:31:03.321Z,53.88
2019-02-10T05:36:58.358Z,75.33
2019-02-10T05:42:53.327Z,77.19
2019-02-10T05:48:48.318Z,76.04
2019-02-10T05:54:43.331Z,77.89
2019-02-10T06:00:38.328Z,73.63
2019-02-10T06:06:33.359Z,85.51
2019-02-10T06:12:28.338Z,84.33
2019-02-10T06:18:23.324Z,81.26
2019-02-10T06:24:18.349Z,70.9
2019-02-10T06:30:13.339Z,60.7
2019-02-10T06:36:08.346Z,35.61
2019-02-10T06:42:03.352Z,28.08
2019-02-10T06:47:58.381Z,13.61
2019-02-10T06:53:53.356Z,12.17
2019-02-10T06:59:48.380Z,11.48
2019-02-10T07:05:43.363Z,10.95
2019-02-10T07:11:38.361Z,9.82
2019-02-10T07:17:33.388Z,9.7
2019-02-10T07:23:28.356Z,38.98
2019-02-10T07:29:23.385Z,60.6
2019-02-10T07:35:18.485Z,48.21
2019-02-10T07:41:13.392Z,31.91
2019-02-10T07:47:08.408Z,33.11
2019-02-10T07:53:03.425Z,32.9
2019-02-10T07:58:58.419Z,52.51
2019-02-10T08:04:53.404Z,72.39
2019-02-10T08:10:48.426Z,64.33
2019-02-10T08:16:43.399Z,57.62
2019-02-10T08:22:38.411Z,53.96
2019-02-10T08:28:33.427Z,40.61
2019-02-10T08:34:28.423Z,46.91
2019-02-10T08:40:23.426Z,44.62
2019-02-10T08:46:18.445Z,44.1
2019-02-10T08:52:13.414Z,42.35
2019-02-10T08:58:08.458Z,42.02
2019-02-10T09:04:03.449Z,46.54
2019-02-10T09:09:58.452Z,45.99
2019-02-10T09:15:53.442Z,45.66
2019-02-10T09:21:48.475Z,48.28
2019-02-10T09:27:43.465Z,57.12
2019-02-10T09:33:38.458Z,57.07
2019-02-10T09:39:33.452Z,59.24
2019-02-10T09:45:28.468Z,62.6
2019-02-10T09:51:23.462Z,70.16
2019-02-10T09:57:18.489Z,63.55
2019-02-10T10:03:13.476Z,48.96
2019-02-10T10:09:08.523Z,40.75
2019-02-10T10:15:03.461Z,36.6
2019-02-10T10:20:58.472Z,36.93
2019-02-10T10:26:53.485Z,28.79
2019-02-10T10:32:48.483Z,27.07
2019-02-10T10:38:43.486Z,23.91
2019-02-10T10:44:38.543Z,17.42
2019-02-10T10:50:33.517Z,12.83
2019-02-10T10:56:28.509Z,13.57
2019-02-10T11:02:23.525Z,14.91
2019-02-10T11:08:18.501Z,14.83
2019-02-10T11:14:13.515Z,15.59
2019-02-10T11:20:08.553Z,15.25
2019-02-10T11:26:03.517Z,20.81
2019-02-10T11:31:58.532Z,18.36
2019-02-10T11:37:53.560Z,30.37
2019-02-10T11:43:48.549Z,18.13
2019-02-10T11:49:43.545Z,16.42
2019-02-10T11:55:38.530Z,15.35
2019-02-10T12:01:33.588Z,16.71
2019-02-10T12:07:29.139Z,15.99
2019-02-10T12:13:23.566Z,16.81
2019-02-10T12:19:18.538Z,18.33
2019-02-10T12:25:13.553Z,17.06
2019-02-10T12:31:08.544Z,16.74
2019-02-10T12:37:03.567Z,15.53
2019-02-10T12:42:58.588Z,14.61
2019-02-10T12:48:53.619Z,11.67
2019-02-10T12:54:48.586Z,10.94
2019-02-10T13:00:43.591Z,10.08
2019-02-10T13:06:38.579Z,9.71
2019-02-10T13:12:33.581Z,9.58
2019-02-10T13:18:28.635Z,8.57
2019-02-10T13:24:23.590Z,8.44
2019-02-10T13:30:18.629Z,9.06
2019-02-10T13:36:13.607Z,8.3
2019-02-10T13:42:08.628Z,9.12
2019-02-10T13:48:03.599Z,8.26
2019-02-10T13:53:58.614Z,8.14
2019-02-10T13:59:53.653Z,8.75
2019-02-10T14:05:48.597Z,8.74
2019-02-10T14:11:43.610Z,8.14
2019-02-10T14:17:38.622Z,7.55
2019-02-10T14:23:33.660Z,4.91
2019-02-10T14:29:28.616Z,4.91
2019-02-10T14:35:23.645Z,4.97
2019-02-10T14:41:18.624Z,4.9
2019-02-10T14:47:13.653Z,5.59
2019-02-10T14:53:08.634Z,6
2019-02-10T14:59:04.389Z,6.34
2019-02-10T15:04:58.669Z,6.94
2019-02-10T15:10:53.662Z,6.37
2019-02-10T15:16:48.672Z,6.94
2019-02-10T15:22:43.666Z,6.56
2019-02-10T15:28:38.649Z,6.59
2019-02-10T15:34:33.695Z,7.42
2019-02-10T15:40:28.701Z,7.13
2019-02-10T15:46:23.672Z,6.71
2019-02-10T15:52:18.687Z,8.21
2019-02-10T15:58:13.670Z,8.07
2019-02-10T16:04:08.691Z,8.1
2019-02-10T16:10:03.704Z,9
2019-02-10T16:15:58.690Z,9.24
2019-02-10T16:21:53.709Z,8.57
2019-02-10T16:27:48.689Z,8.05
2019-02-10T16:33:43.737Z,6.74
2019-02-10T16:39:38.695Z,7.18
2019-02-10T16:45:33.697Z,7.67
2019-02-10T16:51:28.703Z,7.82
2019-02-10T16:57:23.743Z,8.37
2019-02-10T17:03:18.751Z,7.39
2019-02-10T17:09:13.757Z,7.61
2019-02-10T17:15:08.732Z,8.52
2019-02-10T17:21:03.786Z,7.73
2019-02-10T17:26:58.728Z,7.58
2019-02-10T17:32:53.734Z,7.28
2019-02-10T17:38:48.738Z,8.24
2019-02-10T17:44:43.841Z,8.72
2019-02-10T17:50:38.740Z,10.39
2019-02-10T17:56:33.751Z,7.64
2019-02-10T18:02:28.779Z,8.18
2019-02-10T18:08:23.759Z,8.17
2019-02-10T18:14:18.856Z,12.53
2019-02-10T18:20:13.810Z,10.91
2019-02-10T18:26:08.769Z,8.73
2019-02-10T18:32:03.776Z,8.64
2019-02-10T18:37:58.773Z,11.53
2019-02-10T18:43:53.772Z,8.24
2019-02-10T18:49:48.776Z,9.41
2019-02-10T18:55:43.822Z,8.9
2019-02-10T19:01:38.837Z,13.2
2019-02-10T19:07:33.769Z,12.29
2019-02-10T19:13:28.795Z,7.89
2019-02-10T19:19:23.819Z,9.35
2019-02-10T19:25:18.797Z,8.2
2019-02-10T19:31:13.804Z,8.16
2019-02-10T19:37:08.817Z,7.88
2019-02-10T19:43:03.824Z,8.29
2019-02-10T19:48:58.871Z,8.05
2019-02-10T19:54:53.852Z,8.71
2019-02-10T20:00:48.876Z,7.88
2019-02-10T20:06:43.822Z,9.54
2019-02-10T20:12:38.831Z,8.35
2019-02-10T20:18:33.830Z,8.08
2019-02-10T20:24:28.842Z,8.62
2019-02-10T20:30:23.843Z,8.12
2019-02-10T20:36:20.564Z,8.22
2019-02-10T20:42:13.901Z,8.7
2019-02-10T20:48:08.849Z,8.76
2019-02-10T20:54:03.875Z,8.03
2019-02-10T20:59:58.850Z,8.43
2019-02-10T21:05:53.878Z,7.84
2019-02-10T21:11:48.910Z,7.38
2019-02-10T21:17:43.881Z,8.01
2019-02-10T21:23:38.903Z,6.78
2019-02-10T21:29:33.882Z,7.26
2019-02-10T21:35:28.873Z,6.7
2019-02-10T21:41:23.889Z,7.07
2019-02-10T21:47:18.888Z,7.55
2019-02-10T21:53:13.879Z,6.82
2019-02-10T21:59:08.945Z,8.25
2019-02-10T22:05:03.906Z,7.45
2019-02-10T22:10:58.902Z,7.95
2019-02-10T22:16:53.894Z,8.72
2019-02-10T22:22:48.894Z,8.99
2019-02-10T22:28:43.926Z,8.79
2019-02-10T22:34:38.898Z,8.1
2019-02-10T22:40:33.985Z,8.48
2019-02-10T22:46:28.927Z,9.03
2019-02-10T22:52:23.944Z,8.81
2019-02-10T22:58:18.928Z,9.39
2019-02-10T23:04:13.921Z,8.47
2019-02-10T23:10:08.927Z,9.88
2019-02-10T23:16:03.982Z,10.49
2019-02-10T23:21:58.963Z,10.13
2019-02-10T23:27:53.930Z,9.35
2019-02-10T23:33:48.987Z,11.06
2019-02-10T23:39:43.943Z,9.99
2019-02-10T23:45:38.973Z,10.87
2019-02-10T23:51:33.976Z,10.3
2019-02-10T23:57:28.954Z,10.04
